sensor_id;sensor_type;location;lat;lon;timestamp;P1;durP1;ratioP1;P2;durP2;ratioP2
75687;SDS011;64300;45.034;38.910;2023-04-03T00:00:28;6.00;;;1.40;;
75687;SDS011;64300;45.034;38.910;2023-04-03T00:02:54;6.82;;;1.52;;
75687;SDS011;64300;45.034;38.910;2023-04-03T00:05:19;5.93;;;1.70;;
75687;SDS011;64300;45.034;38.910;2023-04-03T00:07:45;9.40;;;1.60;;
75687;SDS011;64300;45.034;38.910;2023-04-03T00:10:11;4.65;;;1.48;;
75687;SDS011;64300;45.034;38.910;2023-04-03T00:12:37;6.13;;;1.70;;
75687;SDS011;64300;45.034;38.910;2023-04-03T00:15:03;6.30;;;1.52;;
75687;SDS011;64300;45.034;38.910;2023-04-03T00:17:29;6.00;;;1.25;;
75687;SDS011;64300;45.034;38.910;2023-04-03T00:19:54;4.00;;;1.40;;
75687;SDS011;64300;45.034;38.910;2023-04-03T00:22:20;3.70;;;1.38;;
75687;SDS011;64300;45.034;38.910;2023-04-03T00:24:45;8.60;;;1.63;;
75687;SDS011;64300;45.034;38.910;2023-04-03T00:27:11;4.63;;;1.52;;
75687;SDS011;64300;45.034;38.910;2023-04-03T00:29:36;4.38;;;1.33;;
75687;SDS011;64300;45.034;38.910;2023-04-03T00:32:02;5.82;;;1.50;;
75687;SDS011;64300;45.034;38.910;2023-04-03T00:34:28;5.78;;;1.48;;
75687;SDS011;64300;45.034;38.910;2023-04-03T00:36:53;8.88;;;1.80;;
75687;SDS011;64300;45.034;38.910;2023-04-03T00:39:19;4.38;;;1.30;;
75687;SDS011;64300;45.034;38.910;2023-04-03T00:41:44;3.38;;;1.30;;
75687;SDS011;64300;45.034;38.910;2023-04-03T00:44:20;8.77;;;1.50;;
75687;SDS011;64300;45.034;38.910;2023-04-03T00:46:47;4.25;;;1.20;;
75687;SDS011;64300;45.034;38.910;2023-04-03T00:49:13;7.10;;;1.45;;
75687;SDS011;64300;45.034;38.910;2023-04-03T00:51:38;5.00;;;1.55;;
75687;SDS011;64300;45.034;38.910;2023-04-03T00:54:05;10.93;;;1.48;;
75687;SDS011;64300;45.034;38.910;2023-04-03T00:56:30;5.00;;;1.30;;
75687;SDS011;64300;45.034;38.910;2023-04-03T00:58:58;3.90;;;1.27;;
75687;SDS011;64300;45.034;38.910;2023-04-03T01:01:25;8.20;;;1.50;;
75687;SDS011;64300;45.034;38.910;2023-04-03T01:03:51;3.22;;;1.30;;
75687;SDS011;64300;45.034;38.910;2023-04-03T01:06:19;5.00;;;1.33;;
75687;SDS011;64300;45.034;38.910;2023-04-03T01:08:47;4.43;;;1.30;;
75687;SDS011;64300;45.034;38.910;2023-04-03T01:11:14;2.90;;;1.30;;
75687;SDS011;64300;45.034;38.910;2023-04-03T01:13:40;3.70;;;1.27;;
75687;SDS011;64300;45.034;38.910;2023-04-03T01:16:06;6.95;;;1.40;;
75687;SDS011;64300;45.034;38.910;2023-04-03T01:18:32;5.82;;;1.42;;
75687;SDS011;64300;45.034;38.910;2023-04-03T01:26:08;5.93;;;1.60;;
75687;SDS011;64300;45.034;38.910;2023-04-03T01:28:35;4.18;;;1.40;;
75687;SDS011;64300;45.034;38.910;2023-04-03T01:31:13;5.90;;;1.50;;
75687;SDS011;64300;45.034;38.910;2023-04-03T01:33:42;7.22;;;1.40;;
75687;SDS011;64300;45.034;38.910;2023-04-03T01:36:09;5.15;;;1.75;;
75687;SDS011;64300;45.034;38.910;2023-04-03T01:39:00;5.60;;;1.33;;
75687;SDS011;64300;45.034;38.910;2023-04-03T01:41:26;4.35;;;1.33;;
75687;SDS011;64300;45.034;38.910;2023-04-03T01:43:57;3.20;;;1.30;;
75687;SDS011;64300;45.034;38.910;2023-04-03T01:46:23;4.32;;;1.15;;
75687;SDS011;64300;45.034;38.910;2023-04-03T01:48:49;4.90;;;1.52;;
75687;SDS011;64300;45.034;38.910;2023-04-03T01:51:15;6.40;;;1.50;;
75687;SDS011;64300;45.034;38.910;2023-04-03T01:53:40;3.60;;;1.30;;
75687;SDS011;64300;45.034;38.910;2023-04-03T01:56:06;3.13;;;1.10;;
75687;SDS011;64300;45.034;38.910;2023-04-03T01:58:32;3.88;;;1.50;;
75687;SDS011;64300;45.034;38.910;2023-04-03T02:00:58;3.72;;;1.50;;
75687;SDS011;64300;45.034;38.910;2023-04-03T02:03:25;4.32;;;1.35;;
75687;SDS011;64300;45.034;38.910;2023-04-03T02:05:51;3.38;;;1.40;;
75687;SDS011;64300;45.034;38.910;2023-04-03T02:08:17;4.45;;;1.52;;
75687;SDS011;64300;45.034;38.910;2023-04-03T02:10:43;4.13;;;1.40;;
75687;SDS011;64300;45.034;38.910;2023-04-03T02:13:10;3.33;;;1.17;;
75687;SDS011;64300;45.034;38.910;2023-04-03T02:15:37;3.53;;;1.52;;
75687;SDS011;64300;45.034;38.910;2023-04-03T02:18:03;11.52;;;1.65;;
75687;SDS011;64300;45.034;38.910;2023-04-03T02:20:29;4.15;;;1.58;;
75687;SDS011;64300;45.034;38.910;2023-04-03T02:22:55;5.30;;;1.60;;
75687;SDS011;64300;45.034;38.910;2023-04-03T02:25:20;3.13;;;1.25;;
75687;SDS011;64300;45.034;38.910;2023-04-03T02:27:46;5.05;;;1.52;;
75687;SDS011;64300;45.034;38.910;2023-04-03T02:30:12;5.28;;;1.70;;
75687;SDS011;64300;45.034;38.910;2023-04-03T02:32:38;4.68;;;1.48;;
75687;SDS011;64300;45.034;38.910;2023-04-03T02:35:05;5.65;;;1.80;;
75687;SDS011;64300;45.034;38.910;2023-04-03T02:37:31;5.47;;;1.60;;
75687;SDS011;64300;45.034;38.910;2023-04-03T02:39:57;4.32;;;1.90;;
75687;SDS011;64300;45.034;38.910;2023-04-03T02:42:23;5.70;;;2.00;;
75687;SDS011;64300;45.034;38.910;2023-04-03T02:44:50;8.50;;;1.80;;
75687;SDS011;64300;45.034;38.910;2023-04-03T02:47:16;5.15;;;2.20;;
75687;SDS011;64300;45.034;38.910;2023-04-03T02:49:41;6.22;;;1.92;;
75687;SDS011;64300;45.034;38.910;2023-04-03T02:52:13;6.53;;;1.80;;
75687;SDS011;64300;45.034;38.910;2023-04-03T02:54:39;4.47;;;1.83;;
75687;SDS011;64300;45.034;38.910;2023-04-03T02:57:07;5.63;;;2.00;;
75687;SDS011;64300;45.034;38.910;2023-04-03T02:59:35;6.03;;;2.20;;
75687;SDS011;64300;45.034;38.910;2023-04-03T03:02:00;7.60;;;1.98;;
75687;SDS011;64300;45.034;38.910;2023-04-03T03:04:26;5.63;;;2.10;;
75687;SDS011;64300;45.034;38.910;2023-04-03T03:06:52;6.72;;;2.00;;
75687;SDS011;64300;45.034;38.910;2023-04-03T03:09:17;12.63;;;2.45;;
75687;SDS011;64300;45.034;38.910;2023-04-03T03:11:43;4.68;;;1.90;;
75687;SDS011;64300;45.034;38.910;2023-04-03T03:14:09;6.65;;;2.70;;
75687;SDS011;64300;45.034;38.910;2023-04-03T03:16:35;4.75;;;1.92;;
75687;SDS011;64300;45.034;38.910;2023-04-03T03:19:01;6.80;;;2.70;;
75687;SDS011;64300;45.034;38.910;2023-04-03T03:21:27;8.98;;;2.38;;
75687;SDS011;64300;45.034;38.910;2023-04-03T03:23:52;4.15;;;2.40;;
75687;SDS011;64300;45.034;38.910;2023-04-03T03:26:18;5.75;;;2.30;;
75687;SDS011;64300;45.034;38.910;2023-04-03T03:28:43;6.63;;;2.45;;
75687;SDS011;64300;45.034;38.910;2023-04-03T03:31:10;5.43;;;2.58;;
75687;SDS011;64300;45.034;38.910;2023-04-03T03:33:40;9.75;;;2.55;;
75687;SDS011;64300;45.034;38.910;2023-04-03T03:36:06;6.82;;;2.42;;
75687;SDS011;64300;45.034;38.910;2023-04-03T03:38:32;6.35;;;2.63;;
75687;SDS011;64300;45.034;38.910;2023-04-03T03:40:59;10.10;;;2.63;;
75687;SDS011;64300;45.034;38.910;2023-04-03T03:43:25;10.75;;;3.50;;
75687;SDS011;64300;45.034;38.910;2023-04-03T03:45:59;6.13;;;3.13;;
75687;SDS011;64300;45.034;38.910;2023-04-03T03:48:26;5.20;;;2.58;;
75687;SDS011;64300;45.034;38.910;2023-04-03T03:50:52;6.93;;;2.63;;
75687;SDS011;64300;45.034;38.910;2023-04-03T03:55:55;5.68;;;2.70;;
75687;SDS011;64300;45.034;38.910;2023-04-03T03:58:24;4.95;;;2.33;;
75687;SDS011;64300;45.034;38.910;2023-04-03T04:00:50;8.02;;;2.88;;
75687;SDS011;64300;45.034;38.910;2023-04-03T04:03:16;6.95;;;2.42;;
75687;SDS011;64300;45.034;38.910;2023-04-03T04:05:44;7.82;;;3.30;;
75687;SDS011;64300;45.034;38.910;2023-04-03T04:08:11;6.35;;;2.55;;
75687;SDS011;64300;45.034;38.910;2023-04-03T04:10:37;6.18;;;3.13;;
75687;SDS011;64300;45.034;38.910;2023-04-03T04:13:03;6.00;;;2.63;;
75687;SDS011;64300;45.034;38.910;2023-04-03T04:15:30;6.32;;;3.00;;
75687;SDS011;64300;45.034;38.910;2023-04-03T04:17:56;4.93;;;2.75;;
75687;SDS011;64300;45.034;38.910;2023-04-03T04:20:22;5.63;;;2.88;;
75687;SDS011;64300;45.034;38.910;2023-04-03T04:22:48;9.27;;;3.15;;
75687;SDS011;64300;45.034;38.910;2023-04-03T04:25:15;8.45;;;2.55;;
75687;SDS011;64300;45.034;38.910;2023-04-03T04:27:40;6.45;;;3.35;;
75687;SDS011;64300;45.034;38.910;2023-04-03T04:30:07;8.85;;;4.07;;
75687;SDS011;64300;45.034;38.910;2023-04-03T04:32:33;7.80;;;4.10;;
75687;SDS011;64300;45.034;38.910;2023-04-03T04:34:59;8.73;;;3.80;;
75687;SDS011;64300;45.034;38.910;2023-04-03T04:37:26;8.52;;;3.33;;
75687;SDS011;64300;45.034;38.910;2023-04-03T04:39:52;8.05;;;3.17;;
75687;SDS011;64300;45.034;38.910;2023-04-03T04:42:17;6.85;;;2.88;;
75687;SDS011;64300;45.034;38.910;2023-04-03T04:44:44;7.10;;;2.70;;
75687;SDS011;64300;45.034;38.910;2023-04-03T04:47:12;8.30;;;3.10;;
75687;SDS011;64300;45.034;38.910;2023-04-03T04:49:38;7.38;;;2.63;;
75687;SDS011;64300;45.034;38.910;2023-04-03T04:52:04;5.88;;;2.33;;
75687;SDS011;64300;45.034;38.910;2023-04-03T04:54:31;8.57;;;2.88;;
75687;SDS011;64300;45.034;38.910;2023-04-03T04:56:57;8.63;;;3.13;;
75687;SDS011;64300;45.034;38.910;2023-04-03T04:59:23;4.82;;;2.58;;
75687;SDS011;64300;45.034;38.910;2023-04-03T05:01:51;5.15;;;2.70;;
75687;SDS011;64300;45.034;38.910;2023-04-03T05:04:17;6.50;;;2.63;;
75687;SDS011;64300;45.034;38.910;2023-04-03T05:06:46;6.20;;;2.60;;
75687;SDS011;64300;45.034;38.910;2023-04-03T05:09:16;7.75;;;2.80;;
75687;SDS011;64300;45.034;38.910;2023-04-03T05:11:43;5.75;;;2.72;;
75687;SDS011;64300;45.034;38.910;2023-04-03T05:14:11;8.50;;;2.85;;
75687;SDS011;64300;45.034;38.910;2023-04-03T05:16:36;8.05;;;2.60;;
75687;SDS011;64300;45.034;38.910;2023-04-03T05:19:02;6.55;;;3.13;;
75687;SDS011;64300;45.034;38.910;2023-04-03T05:21:30;7.90;;;3.45;;
75687;SDS011;64300;45.034;38.910;2023-04-03T05:24:00;6.85;;;2.78;;
75687;SDS011;64300;45.034;38.910;2023-04-03T05:26:31;6.90;;;3.03;;
75687;SDS011;64300;45.034;38.910;2023-04-03T05:28:58;8.27;;;3.20;;
75687;SDS011;64300;45.034;38.910;2023-04-03T05:31:23;8.65;;;3.00;;
75687;SDS011;64300;45.034;38.910;2023-04-03T05:33:49;6.78;;;2.85;;
75687;SDS011;64300;45.034;38.910;2023-04-03T05:36:16;7.15;;;3.15;;
75687;SDS011;64300;45.034;38.910;2023-04-03T05:38:45;6.85;;;2.90;;
75687;SDS011;64300;45.034;38.910;2023-04-03T05:41:11;5.63;;;2.63;;
75687;SDS011;64300;45.034;38.910;2023-04-03T05:43:37;6.85;;;2.90;;
75687;SDS011;64300;45.034;38.910;2023-04-03T05:46:16;5.10;;;2.58;;
75687;SDS011;64300;45.034;38.910;2023-04-03T05:48:44;6.00;;;2.95;;
75687;SDS011;64300;45.034;38.910;2023-04-03T05:51:17;6.50;;;3.13;;
75687;SDS011;64300;45.034;38.910;2023-04-03T05:53:45;13.00;;;3.80;;
75687;SDS011;64300;45.034;38.910;2023-04-03T05:56:12;7.93;;;2.85;;
75687;SDS011;64300;45.034;38.910;2023-04-03T05:58:39;12.98;;;3.78;;
75687;SDS011;64300;45.034;38.910;2023-04-03T06:01:05;11.52;;;3.17;;
75687;SDS011;64300;45.034;38.910;2023-04-03T06:03:31;10.38;;;3.65;;
75687;SDS011;64300;45.034;38.910;2023-04-03T06:05:57;8.32;;;3.30;;
75687;SDS011;64300;45.034;38.910;2023-04-03T06:08:23;10.85;;;3.63;;
75687;SDS011;64300;45.034;38.910;2023-04-03T06:10:49;7.72;;;2.78;;
75687;SDS011;64300;45.034;38.910;2023-04-03T06:13:15;11.43;;;3.75;;
75687;SDS011;64300;45.034;38.910;2023-04-03T06:15:41;7.78;;;3.33;;
75687;SDS011;64300;45.034;38.910;2023-04-03T06:18:08;8.88;;;3.38;;
75687;SDS011;64300;45.034;38.910;2023-04-03T06:20:34;8.50;;;3.70;;
75687;SDS011;64300;45.034;38.910;2023-04-03T06:22:59;12.85;;;3.50;;
75687;SDS011;64300;45.034;38.910;2023-04-03T06:25:26;11.15;;;3.30;;
75687;SDS011;64300;45.034;38.910;2023-04-03T06:27:52;15.63;;;3.75;;
75687;SDS011;64300;45.034;38.910;2023-04-03T06:30:20;7.20;;;3.15;;
75687;SDS011;64300;45.034;38.910;2023-04-03T06:32:46;11.27;;;4.13;;
75687;SDS011;64300;45.034;38.910;2023-04-03T06:35:12;7.25;;;3.22;;
75687;SDS011;64300;45.034;38.910;2023-04-03T06:37:37;9.20;;;3.42;;
75687;SDS011;64300;45.034;38.910;2023-04-03T06:40:03;9.43;;;3.40;;
75687;SDS011;64300;45.034;38.910;2023-04-03T06:42:29;7.63;;;3.47;;
75687;SDS011;64300;45.034;38.910;2023-04-03T06:45:05;7.55;;;3.08;;
75687;SDS011;64300;45.034;38.910;2023-04-03T06:47:32;7.72;;;2.65;;
75687;SDS011;64300;45.034;38.910;2023-04-03T06:49:58;7.32;;;2.90;;
75687;SDS011;64300;45.034;38.910;2023-04-03T06:52:24;7.10;;;3.72;;
75687;SDS011;64300;45.034;38.910;2023-04-03T06:54:50;9.88;;;3.63;;
75687;SDS011;64300;45.034;38.910;2023-04-03T06:57:22;10.88;;;3.17;;
75687;SDS011;64300;45.034;38.910;2023-04-03T06:59:48;12.38;;;3.28;;
75687;SDS011;64300;45.034;38.910;2023-04-03T07:02:14;9.35;;;2.72;;
75687;SDS011;64300;45.034;38.910;2023-04-03T07:04:39;6.60;;;3.00;;
75687;SDS011;64300;45.034;38.910;2023-04-03T07:07:05;8.23;;;3.35;;
75687;SDS011;64300;45.034;38.910;2023-04-03T07:09:40;6.28;;;3.08;;
75687;SDS011;64300;45.034;38.910;2023-04-03T07:12:05;10.00;;;3.97;;
75687;SDS011;64300;45.034;38.910;2023-04-03T07:14:31;8.38;;;2.75;;
75687;SDS011;64300;45.034;38.910;2023-04-03T07:16:57;6.68;;;2.95;;
75687;SDS011;64300;45.034;38.910;2023-04-03T07:19:23;9.48;;;2.53;;
75687;SDS011;64300;45.034;38.910;2023-04-03T07:21:50;8.82;;;3.03;;
75687;SDS011;64300;45.034;38.910;2023-04-03T07:24:16;9.10;;;3.22;;
75687;SDS011;64300;45.034;38.910;2023-04-03T07:26:41;8.27;;;3.08;;
75687;SDS011;64300;45.034;38.910;2023-04-03T07:29:07;10.13;;;3.15;;
75687;SDS011;64300;45.034;38.910;2023-04-03T07:31:32;8.35;;;3.03;;
75687;SDS011;64300;45.034;38.910;2023-04-03T07:33:59;9.38;;;3.20;;
75687;SDS011;64300;45.034;38.910;2023-04-03T07:36:25;8.48;;;2.78;;
75687;SDS011;64300;45.034;38.910;2023-04-03T07:38:50;7.35;;;2.80;;
75687;SDS011;64300;45.034;38.910;2023-04-03T07:41:16;8.85;;;3.25;;
75687;SDS011;64300;45.034;38.910;2023-04-03T07:43:43;9.82;;;2.70;;
75687;SDS011;64300;45.034;38.910;2023-04-03T07:46:09;17.48;;;3.42;;
75687;SDS011;64300;45.034;38.910;2023-04-03T07:48:39;11.95;;;3.33;;
75687;SDS011;64300;45.034;38.910;2023-04-03T07:51:05;13.00;;;4.47;;
75687;SDS011;64300;45.034;38.910;2023-04-03T07:56:59;10.88;;;4.05;;
75687;SDS011;64300;45.034;38.910;2023-04-03T07:59:24;17.45;;;4.53;;
75687;SDS011;64300;45.034;38.910;2023-04-03T08:01:50;21.48;;;5.05;;
75687;SDS011;64300;45.034;38.910;2023-04-03T08:04:15;13.95;;;4.30;;
75687;SDS011;64300;45.034;38.910;2023-04-03T08:06:41;12.40;;;3.58;;
75687;SDS011;64300;45.034;38.910;2023-04-03T08:09:07;10.05;;;3.42;;
75687;SDS011;64300;45.034;38.910;2023-04-03T08:11:33;11.60;;;3.45;;
75687;SDS011;64300;45.034;38.910;2023-04-03T08:13:59;6.97;;;3.58;;
75687;SDS011;64300;45.034;38.910;2023-04-03T08:16:24;11.43;;;5.50;;
75687;SDS011;64300;45.034;38.910;2023-04-03T08:18:53;8.25;;;3.88;;
75687;SDS011;64300;45.034;38.910;2023-04-03T08:21:20;7.40;;;4.03;;
75687;SDS011;64300;45.034;38.910;2023-04-03T08:23:47;5.75;;;3.00;;
75687;SDS011;64300;45.034;38.910;2023-04-03T08:26:14;7.00;;;3.17;;
75687;SDS011;64300;45.034;38.910;2023-04-03T08:28:40;8.70;;;3.67;;
75687;SDS011;64300;45.034;38.910;2023-04-03T08:31:07;7.97;;;3.28;;
75687;SDS011;64300;45.034;38.910;2023-04-03T08:33:33;5.10;;;2.85;;
75687;SDS011;64300;45.034;38.910;2023-04-03T08:36:17;7.57;;;3.13;;
75687;SDS011;64300;45.034;38.910;2023-04-03T08:38:43;8.32;;;3.33;;
75687;SDS011;64300;45.034;38.910;2023-04-03T08:46:23;6.72;;;3.35;;
75687;SDS011;64300;45.034;38.910;2023-04-03T08:48:51;9.85;;;4.43;;
75687;SDS011;64300;45.034;38.910;2023-04-03T08:51:19;11.48;;;3.78;;
75687;SDS011;64300;45.034;38.910;2023-04-03T08:53:56;7.70;;;4.20;;
75687;SDS011;64300;45.034;38.910;2023-04-03T08:56:22;7.53;;;3.63;;
75687;SDS011;64300;45.034;38.910;2023-04-03T08:58:57;7.53;;;2.97;;
75687;SDS011;64300;45.034;38.910;2023-04-03T09:01:28;10.35;;;3.85;;
75687;SDS011;64300;45.034;38.910;2023-04-03T09:03:54;7.03;;;3.22;;
75687;SDS011;64300;45.034;38.910;2023-04-03T09:16:57;7.75;;;2.78;;
75687;SDS011;64300;45.034;38.910;2023-04-03T09:22:07;5.65;;;2.58;;
75687;SDS011;64300;45.034;38.910;2023-04-03T09:24:35;7.10;;;2.70;;
75687;SDS011;64300;45.034;38.910;2023-04-03T09:27:03;5.18;;;2.17;;
75687;SDS011;64300;45.034;38.910;2023-04-03T09:29:29;4.70;;;2.25;;
75687;SDS011;64300;45.034;38.910;2023-04-03T09:32:00;6.97;;;2.28;;
75687;SDS011;64300;45.034;38.910;2023-04-03T09:34:27;6.32;;;3.28;;
75687;SDS011;64300;45.034;38.910;2023-04-03T09:36:57;4.35;;;2.30;;
75687;SDS011;64300;45.034;38.910;2023-04-03T09:39:24;3.65;;;2.13;;
75687;SDS011;64300;45.034;38.910;2023-04-03T09:44:29;5.55;;;2.30;;
75687;SDS011;64300;45.034;38.910;2023-04-03T09:46:58;7.40;;;2.40;;
75687;SDS011;64300;45.034;38.910;2023-04-03T09:49:24;5.20;;;2.75;;
75687;SDS011;64300;45.034;38.910;2023-04-03T09:51:50;5.93;;;2.30;;
75687;SDS011;64300;45.034;38.910;2023-04-03T09:56:51;5.05;;;2.42;;
75687;SDS011;64300;45.034;38.910;2023-04-03T09:59:17;3.85;;;1.70;;
75687;SDS011;64300;45.034;38.910;2023-04-03T10:01:56;3.47;;;1.60;;
75687;SDS011;64300;45.034;38.910;2023-04-03T10:04:22;3.83;;;2.03;;
75687;SDS011;64300;45.034;38.910;2023-04-03T10:09:26;6.18;;;2.03;;
75687;SDS011;64300;45.034;38.910;2023-04-03T10:14:25;4.03;;;1.80;;
75687;SDS011;64300;45.034;38.910;2023-04-03T10:27:35;4.32;;;2.10;;
75687;SDS011;64300;45.034;38.910;2023-04-03T10:35:25;5.10;;;2.03;;
75687;SDS011;64300;45.034;38.910;2023-04-03T10:38:03;3.90;;;1.80;;
75687;SDS011;64300;45.034;38.910;2023-04-03T10:53:58;5.75;;;1.65;;
75687;SDS011;64300;45.034;38.910;2023-04-03T11:01:45;5.85;;;1.98;;
75687;SDS011;64300;45.034;38.910;2023-04-03T11:04:12;3.97;;;1.70;;
75687;SDS011;64300;45.034;38.910;2023-04-03T11:09:33;5.07;;;1.95;;
75687;SDS011;64300;45.034;38.910;2023-04-03T11:12:15;3.47;;;1.70;;
75687;SDS011;64300;45.034;38.910;2023-04-03T11:14:46;6.00;;;2.15;;
75687;SDS011;64300;45.034;38.910;2023-04-03T11:23:03;4.57;;;1.80;;
75687;SDS011;64300;45.034;38.910;2023-04-03T11:27:44;3.72;;;2.20;;
75687;SDS011;64300;45.034;38.910;2023-04-03T11:30:21;3.92;;;1.55;;
75687;SDS011;64300;45.034;38.910;2023-04-03T11:32:52;5.10;;;2.05;;
75687;SDS011;64300;45.034;38.910;2023-04-03T11:35:19;6.68;;;2.20;;
75687;SDS011;64300;45.034;38.910;2023-04-03T11:37:53;4.63;;;1.77;;
75687;SDS011;64300;45.034;38.910;2023-04-03T11:40:29;6.10;;;1.83;;
75687;SDS011;64300;45.034;38.910;2023-04-03T11:50:47;5.50;;;2.30;;
75687;SDS011;64300;45.034;38.910;2023-04-03T11:55:43;3.35;;;1.50;;
75687;SDS011;64300;45.034;38.910;2023-04-03T11:58:18;7.00;;;1.67;;
75687;SDS011;64300;45.034;38.910;2023-04-03T12:13:43;3.45;;;1.52;;
75687;SDS011;64300;45.034;38.910;2023-04-03T12:42:18;6.63;;;1.50;;
75687;SDS011;64300;45.034;38.910;2023-04-03T12:44:59;3.65;;;1.60;;
75687;SDS011;64300;45.034;38.910;2023-04-03T12:47:28;5.68;;;1.65;;
75687;SDS011;64300;45.034;38.910;2023-04-03T12:49:58;5.47;;;1.92;;
75687;SDS011;64300;45.034;38.910;2023-04-03T12:54:56;3.05;;;1.70;;
75687;SDS011;64300;45.034;38.910;2023-04-03T12:57:26;4.25;;;2.00;;
75687;SDS011;64300;45.034;38.910;2023-04-03T12:59:55;4.85;;;1.90;;
75687;SDS011;64300;45.034;38.910;2023-04-03T13:04:47;4.28;;;1.80;;
75687;SDS011;64300;45.034;38.910;2023-04-03T13:07:20;6.68;;;1.63;;
75687;SDS011;64300;45.034;38.910;2023-04-03T13:09:54;3.70;;;1.70;;
75687;SDS011;64300;45.034;38.910;2023-04-03T13:12:24;3.53;;;1.52;;
75687;SDS011;64300;45.034;38.910;2023-04-03T13:14:53;3.97;;;1.52;;
75687;SDS011;64300;45.034;38.910;2023-04-03T13:17:19;3.80;;;1.55;;
75687;SDS011;64300;45.034;38.910;2023-04-03T13:19:49;3.65;;;1.60;;
75687;SDS011;64300;45.034;38.910;2023-04-03T13:22:35;3.20;;;1.52;;
75687;SDS011;64300;45.034;38.910;2023-04-03T13:25:26;3.85;;;1.80;;
75687;SDS011;64300;45.034;38.910;2023-04-03T13:27:54;7.43;;;2.10;;
75687;SDS011;64300;45.034;38.910;2023-04-03T13:32:49;6.13;;;1.70;;
75687;SDS011;64300;45.034;38.910;2023-04-03T13:35:26;3.70;;;1.67;;
75687;SDS011;64300;45.034;38.910;2023-04-03T13:37:55;4.53;;;1.63;;
75687;SDS011;64300;45.034;38.910;2023-04-03T13:40:24;4.43;;;1.80;;
75687;SDS011;64300;45.034;38.910;2023-04-03T13:43:14;3.65;;;1.67;;
75687;SDS011;64300;45.034;38.910;2023-04-03T13:46:05;6.05;;;2.00;;
75687;SDS011;64300;45.034;38.910;2023-04-03T13:48:40;4.78;;;1.73;;
75687;SDS011;64300;45.034;38.910;2023-04-03T13:53:41;4.38;;;1.77;;
75687;SDS011;64300;45.034;38.910;2023-04-03T13:58:33;4.93;;;1.88;;
75687;SDS011;64300;45.034;38.910;2023-04-03T14:05:19;4.82;;;1.60;;
75687;SDS011;64300;45.034;38.910;2023-04-03T14:07:46;4.95;;;1.55;;
75687;SDS011;64300;45.034;38.910;2023-04-03T14:10:14;4.18;;;1.55;;
75687;SDS011;64300;45.034;38.910;2023-04-03T14:12:40;3.30;;;1.45;;
75687;SDS011;64300;45.034;38.910;2023-04-03T14:32:23;5.30;;;1.60;;
75687;SDS011;64300;45.034;38.910;2023-04-03T14:35:08;3.75;;;1.80;;
75687;SDS011;64300;45.034;38.910;2023-04-03T14:37:38;5.72;;;1.95;;
75687;SDS011;64300;45.034;38.910;2023-04-03T14:40:26;3.85;;;1.50;;
75687;SDS011;64300;45.034;38.910;2023-04-03T14:43:11;4.88;;;1.80;;
75687;SDS011;64300;45.034;38.910;2023-04-03T14:46:26;4.90;;;1.70;;
75687;SDS011;64300;45.034;38.910;2023-04-03T14:49:15;3.22;;;1.73;;
75687;SDS011;64300;45.034;38.910;2023-04-03T14:51:49;6.63;;;1.60;;
75687;SDS011;64300;45.034;38.910;2023-04-03T14:54:17;4.22;;;1.80;;
75687;SDS011;64300;45.034;38.910;2023-04-03T14:56:43;3.53;;;1.45;;
75687;SDS011;64300;45.034;38.910;2023-04-03T14:59:15;4.65;;;1.55;;
75687;SDS011;64300;45.034;38.910;2023-04-03T15:01:42;4.30;;;1.77;;
75687;SDS011;64300;45.034;38.910;2023-04-03T15:04:15;6.13;;;1.77;;
75687;SDS011;64300;45.034;38.910;2023-04-03T15:06:50;4.88;;;1.95;;
75687;SDS011;64300;45.034;38.910;2023-04-03T15:09:31;5.75;;;2.22;;
75687;SDS011;64300;45.034;38.910;2023-04-03T15:11:57;3.50;;;1.80;;
75687;SDS011;64300;45.034;38.910;2023-04-03T15:14:23;6.50;;;2.38;;
75687;SDS011;64300;45.034;38.910;2023-04-03T15:16:49;7.13;;;2.30;;
75687;SDS011;64300;45.034;38.910;2023-04-03T15:19:15;6.57;;;2.00;;
75687;SDS011;64300;45.034;38.910;2023-04-03T15:21:44;5.93;;;2.42;;
75687;SDS011;64300;45.034;38.910;2023-04-03T15:24:12;6.85;;;1.90;;
75687;SDS011;64300;45.034;38.910;2023-04-03T15:26:38;4.10;;;2.13;;
75687;SDS011;64300;45.034;38.910;2023-04-03T15:29:06;4.45;;;1.88;;
75687;SDS011;64300;45.034;38.910;2023-04-03T15:31:32;4.07;;;1.90;;
75687;SDS011;64300;45.034;38.910;2023-04-03T15:33:58;3.85;;;2.15;;
75687;SDS011;64300;45.034;38.910;2023-04-03T15:36:23;3.83;;;1.75;;
75687;SDS011;64300;45.034;38.910;2023-04-03T15:38:49;6.00;;;2.00;;
75687;SDS011;64300;45.034;38.910;2023-04-03T15:41:15;10.07;;;2.17;;
75687;SDS011;64300;45.034;38.910;2023-04-03T15:43:49;7.22;;;2.00;;
75687;SDS011;64300;45.034;38.910;2023-04-03T15:46:20;3.63;;;1.98;;
75687;SDS011;64300;45.034;38.910;2023-04-03T15:48:49;6.20;;;2.58;;
75687;SDS011;64300;45.034;38.910;2023-04-03T15:51:16;5.70;;;2.80;;
75687;SDS011;64300;45.034;38.910;2023-04-03T15:53:52;6.25;;;2.03;;
75687;SDS011;64300;45.034;38.910;2023-04-03T15:56:17;6.85;;;2.50;;
75687;SDS011;64300;45.034;38.910;2023-04-03T15:58:46;7.90;;;2.70;;
75687;SDS011;64300;45.034;38.910;2023-04-03T16:01:12;5.18;;;2.22;;
75687;SDS011;64300;45.034;38.910;2023-04-03T16:03:40;5.68;;;2.10;;
75687;SDS011;64300;45.034;38.910;2023-04-03T16:06:37;5.80;;;2.00;;
75687;SDS011;64300;45.034;38.910;2023-04-03T16:09:03;6.50;;;2.33;;
75687;SDS011;64300;45.034;38.910;2023-04-03T16:11:29;7.57;;;3.13;;
75687;SDS011;64300;45.034;38.910;2023-04-03T16:13:55;6.88;;;2.38;;
75687;SDS011;64300;45.034;38.910;2023-04-03T16:16:22;5.80;;;2.67;;
75687;SDS011;64300;45.034;38.910;2023-04-03T16:18:50;10.13;;;2.22;;
75687;SDS011;64300;45.034;38.910;2023-04-03T16:24:10;6.05;;;2.33;;
75687;SDS011;64300;45.034;38.910;2023-04-03T16:26:39;6.78;;;2.70;;
75687;SDS011;64300;45.034;38.910;2023-04-03T16:29:04;7.38;;;2.55;;
75687;SDS011;64300;45.034;38.910;2023-04-03T16:31:41;5.80;;;2.17;;
75687;SDS011;64300;45.034;38.910;2023-04-03T16:34:09;4.72;;;2.45;;
75687;SDS011;64300;45.034;38.910;2023-04-03T16:36:35;5.78;;;2.47;;
75687;SDS011;64300;45.034;38.910;2023-04-03T16:39:02;5.60;;;2.28;;
75687;SDS011;64300;45.034;38.910;2023-04-03T16:41:28;7.57;;;2.95;;
75687;SDS011;64300;45.034;38.910;2023-04-03T16:43:54;6.68;;;2.55;;
75687;SDS011;64300;45.034;38.910;2023-04-03T16:46:20;5.97;;;2.60;;
75687;SDS011;64300;45.034;38.910;2023-04-03T16:51:37;9.68;;;2.67;;
75687;SDS011;64300;45.034;38.910;2023-04-03T16:54:02;7.68;;;2.40;;
75687;SDS011;64300;45.034;38.910;2023-04-03T16:56:28;5.97;;;2.60;;
75687;SDS011;64300;45.034;38.910;2023-04-03T16:58:54;6.75;;;2.63;;
75687;SDS011;64300;45.034;38.910;2023-04-03T17:01:20;4.88;;;2.63;;
75687;SDS011;64300;45.034;38.910;2023-04-03T17:03:46;5.53;;;2.17;;
75687;SDS011;64300;45.034;38.910;2023-04-03T17:06:12;8.40;;;2.58;;
75687;SDS011;64300;45.034;38.910;2023-04-03T17:08:41;7.45;;;2.60;;
75687;SDS011;64300;45.034;38.910;2023-04-03T17:11:07;5.57;;;2.20;;
75687;SDS011;64300;45.034;38.910;2023-04-03T17:13:33;5.70;;;2.72;;
75687;SDS011;64300;45.034;38.910;2023-04-03T17:15:59;7.47;;;2.47;;
75687;SDS011;64300;45.034;38.910;2023-04-03T17:18:26;6.15;;;2.70;;
75687;SDS011;64300;45.034;38.910;2023-04-03T17:20:52;7.72;;;2.90;;
75687;SDS011;64300;45.034;38.910;2023-04-03T17:23:17;4.75;;;2.30;;
75687;SDS011;64300;45.034;38.910;2023-04-03T17:25:43;4.78;;;1.98;;
75687;SDS011;64300;45.034;38.910;2023-04-03T17:28:10;8.02;;;2.63;;
75687;SDS011;64300;45.034;38.910;2023-04-03T17:30:36;7.32;;;2.67;;
75687;SDS011;64300;45.034;38.910;2023-04-03T17:33:02;6.28;;;2.70;;